createdAt,value
2023-03-03T00:01:00.751Z,69.06
2023-03-03T00:04:02.564Z,69.17
2023-03-03T00:07:04.068Z,69.53
2023-03-03T00:10:06.432Z,69.94
2023-03-03T00:13:20.412Z,69.75
2023-03-03T00:16:31.845Z,69.93
2023-03-03T00:19:38.812Z,69.64
2023-03-03T00:22:40.705Z,69.72
2023-03-03T00:25:45.856Z,69.66
2023-03-03T00:28:49.977Z,69.81
2023-03-03T00:31:55.296Z,69.98
2023-03-03T00:35:02.504Z,70.31
2023-03-03T00:38:19.151Z,70.10
2023-03-03T00:41:26.409Z,69.89
2023-03-03T00:44:48.193Z,70.18
2023-03-03T00:47:49.852Z,69.87
2023-03-03T00:50:53.886Z,69.79
2023-03-03T00:53:56.721Z,70.28
2023-03-03T00:56:58.246Z,70.17
2023-03-03T00:59:59.900Z,70.22
2023-03-03T01:03:04.627Z,70.16
2023-03-03T01:06:07.222Z,70.15
2023-03-03T01:09:09.012Z,70.16
2023-03-03T01:12:11.511Z,70.28
2023-03-03T01:15:14.804Z,70.26
2023-03-03T01:18:16.534Z,70.04
2023-03-03T01:21:18.266Z,70.16
2023-03-03T01:24:28.561Z,70.11
2023-03-03T01:27:30.824Z,70.12
2023-03-03T01:30:32.558Z,70.25
2023-03-03T01:33:35.274Z,70.46
2023-03-03T01:36:37.031Z,70.23
2023-03-03T01:39:38.553Z,70.28
2023-03-03T01:42:40.450Z,70.47
2023-03-03T01:46:02.383Z,70.56
2023-03-03T01:49:13.405Z,70.55
2023-03-03T01:52:24.730Z,70.48
2023-03-03T01:55:32.563Z,70.60
2023-03-03T01:58:36.908Z,70.80
2023-03-03T02:01:38.977Z,70.58
2023-03-03T02:04:40.897Z,70.63
2023-03-03T02:07:42.602Z,70.65
2023-03-03T02:10:46.156Z,71.04
2023-03-03T02:13:47.772Z,70.70
2023-03-03T02:16:49.320Z,70.73
2023-03-03T02:20:52.670Z,70.78
2023-03-03T02:24:34.233Z,70.77
2023-03-03T02:27:36.800Z,70.80
2023-03-03T02:30:39.615Z,71.20
2023-03-03T02:33:43.269Z,72.31
2023-03-03T02:36:44.912Z,71.77
2023-03-03T02:39:46.602Z,71.37
2023-03-03T02:42:49.064Z,71.53
2023-03-03T02:45:50.611Z,71.16
2023-03-03T02:48:52.301Z,71.34
2023-03-03T02:51:54.444Z,71.35
2023-03-03T02:54:56.057Z,71.27
2023-03-03T02:57:58.042Z,71.31
2023-03-03T03:01:00.072Z,70.99
2023-03-03T03:04:01.714Z,71.16
2023-03-03T03:07:03.488Z,71.34
2023-03-03T03:10:05.385Z,71.61
2023-03-03T03:13:06.968Z,71.33
2023-03-03T03:16:08.512Z,71.58
2023-03-03T03:19:10.178Z,71.12
2023-03-03T03:22:11.868Z,71.26
2023-03-03T03:25:13.561Z,72.00
2023-03-03T03:28:17.052Z,72.31
2023-03-03T03:31:19.837Z,71.98
2023-03-03T03:34:21.441Z,72.09
2023-03-03T03:37:23.089Z,71.86
2023-03-03T03:40:24.869Z,71.81
2023-03-03T03:43:26.474Z,71.99
2023-03-03T03:46:28.133Z,71.90
2023-03-03T03:49:29.719Z,71.96
2023-03-03T03:52:31.425Z,72.24
2023-03-03T03:55:33.274Z,72.24
2023-03-03T03:58:34.827Z,72.40
2023-03-03T04:01:36.434Z,72.34
2023-03-03T04:04:38.145Z,72.49
2023-03-03T04:07:39.900Z,72.10
2023-03-03T04:10:41.655Z,72.34
2023-03-03T04:13:43.458Z,72.38
2023-03-03T04:16:45.161Z,72.47
2023-03-03T04:19:47.154Z,72.58
2023-03-03T04:22:48.939Z,72.78
2023-03-03T04:25:50.525Z,73.87
2023-03-03T04:28:52.307Z,73.52
2023-03-03T04:31:54.110Z,73.13
2023-03-03T04:35:07.283Z,73.00
2023-03-03T04:38:10.055Z,72.78
2023-03-03T04:41:11.768Z,72.93
2023-03-03T04:44:13.382Z,72.81
2023-03-03T04:47:14.978Z,73.03
2023-03-03T04:50:16.544Z,72.93
2023-03-03T04:53:18.308Z,72.85
2023-03-03T04:56:19.975Z,73.21
2023-03-03T04:59:21.668Z,73.65
2023-03-03T05:02:23.354Z,73.39
2023-03-03T05:05:24.941Z,73.18
2023-03-03T05:08:26.512Z,72.53
2023-03-03T05:11:28.051Z,72.22
2023-03-03T05:14:29.627Z,72.59
2023-03-03T05:17:31.242Z,73.76
2023-03-03T05:20:32.974Z,75.18
2023-03-03T05:23:34.642Z,75.35
2023-03-03T05:26:36.313Z,75.42
2023-03-03T05:29:38.022Z,75.35
2023-03-03T05:32:39.678Z,75.76
2023-03-03T05:35:41.476Z,76.15
2023-03-03T05:38:43.016Z,76.65
2023-03-03T05:41:44.889Z,74.64
2023-03-03T05:44:46.301Z,74.08
2023-03-03T05:47:48.580Z,74.19
2023-03-03T05:50:50.163Z,74.24
2023-03-03T05:53:51.843Z,74.38
2023-03-03T05:56:53.507Z,74.04
2023-03-03T05:59:55.040Z,74.51
2023-03-03T06:02:56.710Z,76.41
2023-03-03T06:05:58.612Z,78.18
2023-03-03T06:09:00.172Z,76.95
2023-03-03T06:12:01.888Z,78.41
2023-03-03T06:15:03.831Z,77.28
2023-03-03T06:18:05.546Z,75.55
2023-03-03T06:21:07.236Z,75.13
2023-03-03T06:24:08.853Z,74.83
2023-03-03T06:27:10.649Z,74.82
2023-03-03T06:30:12.813Z,74.67
2023-03-03T06:33:14.489Z,74.83
2023-03-03T06:36:16.150Z,76.06
2023-03-03T06:39:17.676Z,77.02
2023-03-03T06:42:19.957Z,77.33
2023-03-03T06:45:21.649Z,78.06
2023-03-03T06:48:23.186Z,78.69
2023-03-03T06:51:38.624Z,78.03
2023-03-03T06:54:40.994Z,78.69
2023-03-03T06:57:42.487Z,78.08
2023-03-03T07:00:46.242Z,78.29
2023-03-03T07:03:47.917Z,77.53
2023-03-03T07:06:49.553Z,77.24
2023-03-03T07:09:55.988Z,76.65
2023-03-03T07:13:05.487Z,77.82
2023-03-03T07:16:12.419Z,78.77
2023-03-03T07:19:21.042Z,80.14
2023-03-03T07:22:25.825Z,78.62
2023-03-03T07:25:31.217Z,77.77
2023-03-03T07:28:33.505Z,78.35
2023-03-03T07:31:41.095Z,77.85
2023-03-03T07:34:44.847Z,76.88
2023-03-03T07:37:46.443Z,77.94
2023-03-03T07:40:48.861Z,78.82
2023-03-03T07:43:56.155Z,78.75
2023-03-03T07:46:57.845Z,78.38
2023-03-03T07:50:14.502Z,77.97
2023-03-03T07:53:27.632Z,77.34
2023-03-03T07:56:35.180Z,76.04
2023-03-03T07:59:38.836Z,75.84
2023-03-03T08:02:49.027Z,75.69
2023-03-03T08:05:51.487Z,75.45
2023-03-03T08:08:53.082Z,75.38
2023-03-03T08:12:00.614Z,75.29
2023-03-03T08:15:17.248Z,75.39
2023-03-03T08:18:44.214Z,75.13
2023-03-03T08:21:46.314Z,75.45
2023-03-03T08:24:47.991Z,75.21
2023-03-03T08:27:49.922Z,74.80
2023-03-03T08:30:53.120Z,74.86
2023-03-03T08:33:57.728Z,74.93
2023-03-03T08:36:59.402Z,74.78
2023-03-03T08:40:01.016Z,74.78
2023-03-03T08:43:03.573Z,74.59
2023-03-03T08:46:06.624Z,75.23
2023-03-03T08:49:08.301Z,74.69
2023-03-03T08:52:10.594Z,75.03
2023-03-03T08:55:12.558Z,74.82
2023-03-03T08:58:15.771Z,74.51
2023-03-03T09:01:18.286Z,74.59
2023-03-03T09:04:19.966Z,74.64
2023-03-03T09:07:21.579Z,74.55
2023-03-03T09:10:25.382Z,74.66
2023-03-03T09:13:30.135Z,74.59
2023-03-03T09:16:37.079Z,74.66
2023-03-03T09:19:38.873Z,74.34
2023-03-03T09:22:40.404Z,74.57
2023-03-03T09:25:42.336Z,74.28
2023-03-03T09:28:44.223Z,74.37
2023-03-03T09:31:49.736Z,74.34
2023-03-03T09:34:51.440Z,74.09
2023-03-03T09:37:53.051Z,74.34
2023-03-03T09:41:19.332Z,74.07
2023-03-03T09:44:58.898Z,73.88
2023-03-03T09:48:23.948Z,73.61
2023-03-03T09:51:57.803Z,73.94
2023-03-03T09:55:14.388Z,73.37
2023-03-03T09:58:18.743Z,73.29
2023-03-03T10:01:45.708Z,72.83
2023-03-03T10:04:56.503Z,72.46
2023-03-03T10:08:16.937Z,72.79
2023-03-03T10:11:32.433Z,72.24
2023-03-03T10:14:40.729Z,71.88
2023-03-03T10:17:58.898Z,71.68
2023-03-03T10:21:09.561Z,71.80
2023-03-03T10:24:14.377Z,71.89
2023-03-03T10:27:19.020Z,72.05
2023-03-03T10:31:04.690Z,72.20
2023-03-03T10:34:23.888Z,72.24
2023-03-03T10:37:56.950Z,72.07
2023-03-03T10:41:16.757Z,72.27
2023-03-03T10:44:34.488Z,72.15
2023-03-03T10:48:09.872Z,72.23
2023-03-03T10:51:25.015Z,72.21
2023-03-03T10:54:41.630Z,72.12
2023-03-03T10:57:43.468Z,72.14
2023-03-03T11:01:20.341Z,72.38
2023-03-03T11:04:36.323Z,72.00
2023-03-03T11:07:46.690Z,71.93
2023-03-03T11:10:54.332Z,72.04
2023-03-03T11:14:24.338Z,72.14
2023-03-03T11:17:41.533Z,71.97
2023-03-03T11:20:54.361Z,71.90
2023-03-03T11:24:07.019Z,72.04
2023-03-03T11:27:11.902Z,72.00
2023-03-03T11:30:31.554Z,71.99
2023-03-03T11:33:36.013Z,71.67
2023-03-03T11:36:50.576Z,71.71
2023-03-03T11:39:54.510Z,71.93
2023-03-03T11:43:12.057Z,71.95
2023-03-03T11:46:17.298Z,71.71
2023-03-03T11:49:41.387Z,71.94
2023-03-03T11:53:06.707Z,72.04
2023-03-03T11:56:36.064Z,71.87
2023-03-03T12:00:12.011Z,71.60
2023-03-03T12:03:30.274Z,71.50
2023-03-03T12:06:58.665Z,71.52
2023-03-03T12:10:15.564Z,71.36
2023-03-03T12:13:34.794Z,71.37
2023-03-03T12:17:02.362Z,71.26
2023-03-03T12:20:15.404Z,71.48
2023-03-03T12:23:41.863Z,71.36
2023-03-03T12:26:46.708Z,71.13
2023-03-03T12:30:17.002Z,70.73
2023-03-03T12:33:33.688Z,70.43
2023-03-03T12:37:03.712Z,70.08
2023-03-03T12:40:09.502Z,69.84
2023-03-03T12:43:14.086Z,69.94
2023-03-03T12:46:53.335Z,70.03
2023-03-03T12:50:08.092Z,69.84
2023-03-03T12:53:34.265Z,69.64
2023-03-03T12:56:41.985Z,69.42
2023-03-03T13:00:02.113Z,69.09
2023-03-03T13:03:32.112Z,69.26
2023-03-03T13:06:42.455Z,69.52
2023-03-03T13:09:58.883Z,69.20
2023-03-03T13:13:06.714Z,69.47
2023-03-03T13:16:17.101Z,69.26
2023-03-03T13:19:26.400Z,69.07
2023-03-03T13:22:39.782Z,69.46
2023-03-03T13:25:50.494Z,69.22
2023-03-03T13:28:56.976Z,69.35
2023-03-03T13:32:21.131Z,69.50
2023-03-03T13:35:32.345Z,69.48
2023-03-03T13:38:48.591Z,69.61
2023-03-03T13:42:14.186Z,69.57
2023-03-03T13:45:26.107Z,69.73
2023-03-03T13:48:49.244Z,69.80
2023-03-03T13:52:09.463Z,70.07
2023-03-03T13:55:18.445Z,70.15
2023-03-03T13:58:32.519Z,70.16
2023-03-03T14:01:52.452Z,70.27
2023-03-03T14:05:02.687Z,70.44
2023-03-03T14:08:25.739Z,70.38
2023-03-03T14:11:36.124Z,71.01
2023-03-03T14:14:47.957Z,70.72
2023-03-03T14:18:15.986Z,70.58
2023-03-03T14:21:43.730Z,70.63
2023-03-03T14:25:18.118Z,70.53
2023-03-03T14:28:22.407Z,70.64
2023-03-03T14:31:26.987Z,70.41
2023-03-03T14:34:35.964Z,70.54
2023-03-03T14:37:46.919Z,70.66
2023-03-03T14:40:49.613Z,70.49
2023-03-03T14:43:58.790Z,70.68
2023-03-03T14:47:19.685Z,70.72
2023-03-03T14:50:35.318Z,70.83
2023-03-03T14:53:43.329Z,70.93
2023-03-03T14:57:20.032Z,70.50
2023-03-03T15:00:21.596Z,70.51
2023-03-03T15:03:27.479Z,70.67
2023-03-03T15:06:33.842Z,70.80
2023-03-03T15:09:42.053Z,70.78
2023-03-03T15:12:45.138Z,70.66
2023-03-03T15:15:52.628Z,70.69
2023-03-03T15:19:19.210Z,70.94
2023-03-03T15:22:47.265Z,71.05
2023-03-03T15:26:02.536Z,71.26
2023-03-03T15:29:26.570Z,71.19
2023-03-03T15:32:33.559Z,71.67
2023-03-03T15:35:35.255Z,71.53
2023-03-03T15:38:55.519Z,71.50
2023-03-03T15:42:01.547Z,71.64
2023-03-03T15:45:12.059Z,71.91
2023-03-03T15:48:38.291Z,71.75
2023-03-03T15:52:02.518Z,72.29
2023-03-03T15:55:46.571Z,72.43
2023-03-03T15:59:06.828Z,72.10
2023-03-03T16:02:20.754Z,71.91
2023-03-03T16:05:28.356Z,71.94
2023-03-03T16:08:49.907Z,71.92
2023-03-03T16:11:57.766Z,71.91
2023-03-03T16:14:59.310Z,71.89
2023-03-03T16:18:52.350Z,72.12
2023-03-03T16:22:17.634Z,72.25
2023-03-03T16:25:40.840Z,72.12
2023-03-03T16:29:02.600Z,72.04
2023-03-03T16:32:16.929Z,72.24
2023-03-03T16:35:26.835Z,72.00
2023-03-03T16:38:31.292Z,71.53
2023-03-03T16:41:47.854Z,71.68
2023-03-03T16:45:25.182Z,71.58
2023-03-03T16:48:47.261Z,71.82
2023-03-03T16:51:54.981Z,71.83
2023-03-03T16:55:05.847Z,71.82
2023-03-03T16:58:16.715Z,71.93
2023-03-03T17:01:37.027Z,71.93
2023-03-03T17:04:52.642Z,72.20
2023-03-03T17:08:17.910Z,72.04
2023-03-03T17:11:25.588Z,71.90
2023-03-03T17:14:46.009Z,72.09
2023-03-03T17:18:09.522Z,72.39
2023-03-03T17:22:06.961Z,72.37
2023-03-03T17:25:14.337Z,72.19
2023-03-03T17:28:32.269Z,72.58
2023-03-03T17:31:49.910Z,72.47
2023-03-03T17:35:16.777Z,72.42
2023-03-03T17:38:45.641Z,72.32
2023-03-03T17:41:56.333Z,72.56
2023-03-03T17:45:00.914Z,72.49
2023-03-03T17:48:19.674Z,72.43
2023-03-03T17:51:59.947Z,72.44
2023-03-03T17:55:17.129Z,72.49
2023-03-03T17:58:37.349Z,73.01
2023-03-03T18:01:58.845Z,72.88
2023-03-03T18:05:23.928Z,73.33
2023-03-03T18:08:40.648Z,73.21
2023-03-03T18:12:03.593Z,73.60
2023-03-03T18:15:28.039Z,73.25
2023-03-03T18:19:12.845Z,73.22
2023-03-03T18:22:49.960Z,73.34
2023-03-03T18:25:55.125Z,73.52
2023-03-03T18:29:17.098Z,73.60
2023-03-03T18:32:21.896Z,74.41
2023-03-03T18:35:32.827Z,73.76
2023-03-03T18:38:38.428Z,73.88
2023-03-03T18:42:04.953Z,74.30
2023-03-03T18:45:38.915Z,74.05
2023-03-03T18:49:01.579Z,73.84
2023-03-03T18:52:35.866Z,74.23
2023-03-03T18:55:59.779Z,74.46
2023-03-03T18:59:01.461Z,74.93
2023-03-03T19:02:18.138Z,75.39
2023-03-03T19:05:25.415Z,75.46
2023-03-03T19:08:27.031Z,75.82
2023-03-03T19:11:39.716Z,75.66
2023-03-03T19:14:44.156Z,75.16
2023-03-03T19:17:48.698Z,75.82
2023-03-03T19:21:01.538Z,75.73
2023-03-03T19:24:05.289Z,75.73
2023-03-03T19:27:28.472Z,75.75
2023-03-03T19:30:42.266Z,75.66
2023-03-03T19:34:02.034Z,75.49
2023-03-03T19:37:30.159Z,75.35
2023-03-03T19:40:42.653Z,75.37
2023-03-03T19:44:10.408Z,75.76
2023-03-03T19:47:32.306Z,75.57
2023-03-03T19:50:49.258Z,75.40
2023-03-03T19:53:58.715Z,75.05
2023-03-03T19:57:02.654Z,75.24
2023-03-03T20:00:19.195Z,75.52
2023-03-03T20:03:45.041Z,75.34
2023-03-03T20:07:27.006Z,75.53
2023-03-03T20:10:37.384Z,75.58
2023-03-03T20:14:02.489Z,75.81
2023-03-03T20:17:41.746Z,75.82
2023-03-03T20:21:06.589Z,77.51
2023-03-03T20:24:30.313Z,76.68
2023-03-03T20:27:31.903Z,75.10
2023-03-03T20:31:06.973Z,75.17
2023-03-03T20:34:14.067Z,75.64
2023-03-03T20:37:51.400Z,75.42
2023-03-03T20:41:02.063Z,75.92
2023-03-03T20:44:14.219Z,75.96
2023-03-03T20:47:58.238Z,75.74
2023-03-03T20:51:26.254Z,75.78
2023-03-03T20:54:46.353Z,75.53
2023-03-03T20:57:58.242Z,75.39
2023-03-03T21:01:10.275Z,75.46
2023-03-03T21:04:26.857Z,75.55
2023-03-03T21:07:28.419Z,75.41
2023-03-03T21:10:32.163Z,75.42
2023-03-03T21:13:42.482Z,75.34
2023-03-03T21:16:44.211Z,75.36
2023-03-03T21:19:45.765Z,75.51
2023-03-03T21:22:47.714Z,75.81
2023-03-03T21:25:54.127Z,75.59
2023-03-03T21:29:02.294Z,75.63
2023-03-03T21:32:07.192Z,75.64
2023-03-03T21:35:29.269Z,76.20
2023-03-03T21:38:34.351Z,77.37
2023-03-03T21:41:55.158Z,76.81
2023-03-03T21:44:56.767Z,76.74
2023-03-03T21:48:00.208Z,76.69
2023-03-03T21:51:03.967Z,77.26
2023-03-03T21:54:05.440Z,76.65
2023-03-03T21:57:07.517Z,77.07
2023-03-03T22:00:10.403Z,77.25
2023-03-03T22:03:12.932Z,77.51
2023-03-03T22:06:14.471Z,77.49
2023-03-03T22:09:16.108Z,77.51
2023-03-03T22:12:18.025Z,77.66
2023-03-03T22:15:19.697Z,77.48
2023-03-03T22:18:21.292Z,77.60
2023-03-03T22:21:22.859Z,77.73
2023-03-03T22:24:24.508Z,77.64
2023-03-03T22:27:26.156Z,77.96
2023-03-03T22:30:27.677Z,77.75
2023-03-03T22:33:29.203Z,77.97
2023-03-03T22:36:30.735Z,77.87
2023-03-03T22:39:32.368Z,78.51
2023-03-03T22:42:33.981Z,78.20
2023-03-03T22:45:35.550Z,77.68
2023-03-03T22:48:38.382Z,78.09
2023-03-03T22:51:40.316Z,78.12
2023-03-03T22:54:41.901Z,78.89
2023-03-03T23:02:03.156Z,78.82
2023-03-03T23:05:05.113Z,78.69
2023-03-03T23:08:09.830Z,78.60
2023-03-03T23:11:11.414Z,78.51
2023-03-03T23:14:12.999Z,78.78
2023-03-03T23:17:14.678Z,78.92
2023-03-03T23:20:19.528Z,79.34
2023-03-03T23:23:21.386Z,79.24
2023-03-03T23:26:22.982Z,79.43
2023-03-03T23:29:24.832Z,79.15
2023-03-03T23:32:26.434Z,79.06
2023-03-03T23:35:28.092Z,79.20
2023-03-03T23:38:29.694Z,79.22
2023-03-03T23:41:31.274Z,79.12
2023-03-03T23:44:32.910Z,78.85
2023-03-03T23:47:34.552Z,78.81
2023-03-03T23:50:36.163Z,79.52
2023-03-03T23:53:37.713Z,79.48
2023-03-03T23:56:39.259Z,79.20
2023-03-03T23:59:40.958Z,79.58
